createdAt,value
2023-02-11T00:01:26.995Z,22.77
2023-02-11T00:03:55.213Z,20.85
2023-02-11T00:06:23.263Z,23.38
2023-02-11T00:08:50.921Z,24.88
2023-02-11T00:11:19.576Z,27.05
2023-02-11T00:13:47.957Z,24.67
2023-02-11T00:16:18.104Z,24.55
2023-02-11T00:18:46.372Z,26.70
2023-02-11T00:21:17.150Z,26.05
2023-02-11T00:23:46.097Z,26.08
2023-02-11T00:26:22.015Z,24.13
2023-02-11T00:28:51.842Z,26.05
2023-02-11T00:31:21.406Z,27.17
2023-02-11T00:33:49.180Z,30.45
2023-02-11T00:36:24.602Z,26.30
2023-02-11T00:38:53.670Z,28.13
2023-02-11T00:41:22.105Z,25.63
2023-02-11T00:43:49.932Z,27.38
2023-02-11T00:46:19.314Z,30.35
2023-02-11T00:48:46.829Z,29.08
2023-02-11T00:51:14.024Z,28.20
2023-02-11T00:53:41.557Z,28.50
2023-02-11T00:56:08.881Z,29.02
2023-02-11T00:58:36.520Z,30.92
2023-02-11T01:01:04.254Z,29.08
2023-02-11T01:03:31.740Z,30.80
2023-02-11T01:05:59.046Z,26.90
2023-02-11T01:08:26.761Z,27.30
2023-02-11T01:10:56.208Z,28.40
2023-02-11T01:15:51.647Z,25.80
2023-02-11T01:18:19.919Z,29.33
2023-02-11T01:20:50.758Z,28.35
2023-02-11T01:23:18.518Z,25.77
2023-02-11T01:25:46.516Z,28.73
2023-02-11T01:28:23.008Z,29.60
2023-02-11T01:30:50.815Z,27.65
2023-02-11T01:33:18.358Z,28.73
2023-02-11T01:35:46.505Z,28.80
2023-02-11T01:38:24.620Z,26.75
2023-02-11T01:41:02.925Z,30.27
2023-02-11T01:43:38.267Z,29.50
2023-02-11T01:46:28.489Z,29.52
2023-02-11T01:49:01.631Z,30.60
2023-02-11T01:51:38.295Z,30.08
2023-02-11T01:54:27.980Z,29.05
2023-02-11T01:57:16.852Z,30.30
2023-02-11T01:59:47.838Z,30.45
2023-02-11T02:02:23.062Z,31.25
2023-02-11T02:05:00.599Z,32.35
2023-02-11T02:07:42.748Z,34.92
2023-02-11T02:10:17.356Z,29.90
2023-02-11T02:12:44.483Z,31.88
2023-02-11T02:15:18.775Z,34.13
2023-02-11T02:18:02.731Z,30.20
2023-02-11T02:20:45.438Z,31.33
2023-02-11T02:23:15.242Z,32.20
2023-02-11T02:26:16.669Z,31.27
2023-02-11T02:29:02.222Z,34.53
2023-02-11T02:31:51.126Z,34.90
2023-02-11T02:34:36.569Z,31.38
2023-02-11T02:37:19.916Z,32.63
2023-02-11T02:39:50.255Z,29.38
2023-02-11T02:42:20.202Z,35.45
2023-02-11T02:44:51.362Z,30.25
2023-02-11T02:47:19.344Z,30.45
2023-02-11T02:49:46.419Z,32.20
2023-02-11T02:52:30.748Z,38.67
2023-02-11T02:55:22.703Z,34.33
2023-02-11T02:58:08.637Z,31.98
2023-02-11T03:01:17.804Z,32.33
2023-02-11T03:04:12.198Z,33.50
2023-02-11T03:06:55.750Z,33.25
2023-02-11T03:09:39.084Z,31.05
2023-02-11T03:12:07.751Z,30.60
2023-02-11T03:14:35.960Z,32.70
2023-02-11T03:17:05.977Z,31.65
2023-02-11T03:19:46.168Z,33.90
2023-02-11T03:25:07.586Z,28.98
2023-02-11T03:27:47.789Z,31.25
2023-02-11T03:30:53.457Z,28.30
2023-02-11T03:33:32.188Z,32.85
2023-02-11T03:36:17.658Z,30.23
2023-02-11T03:38:51.867Z,31.35
2023-02-11T03:41:23.502Z,29.52
2023-02-11T03:43:54.428Z,35.53
2023-02-11T03:46:28.965Z,30.60
2023-02-11T03:49:03.038Z,29.00
2023-02-11T03:51:33.305Z,30.83
2023-02-11T03:54:02.594Z,30.95
2023-02-11T03:56:35.459Z,30.92
2023-02-11T03:59:02.891Z,30.05
2023-02-11T04:01:30.314Z,30.85
2023-02-11T04:03:57.367Z,31.42
2023-02-11T04:06:24.767Z,31.98
2023-02-11T04:08:51.828Z,29.30
2023-02-11T04:11:19.286Z,28.27
2023-02-11T04:13:46.385Z,29.92
2023-02-11T04:16:13.694Z,31.67
2023-02-11T04:18:40.811Z,28.45
2023-02-11T04:21:08.259Z,31.98
2023-02-11T04:23:35.674Z,28.75
2023-02-11T04:26:03.653Z,30.38
2023-02-11T04:28:31.483Z,26.58
2023-02-11T04:30:59.098Z,27.98
2023-02-11T04:33:26.228Z,30.00
2023-02-11T04:35:53.671Z,30.05
2023-02-11T04:38:20.726Z,33.78
2023-02-11T04:40:48.382Z,26.90
2023-02-11T04:43:15.668Z,27.73
2023-02-11T04:45:43.232Z,27.83
2023-02-11T04:48:10.349Z,27.17
2023-02-11T04:50:37.862Z,29.40
2023-02-11T04:53:05.013Z,28.17
2023-02-11T04:55:32.378Z,27.10
2023-02-11T04:57:59.470Z,28.23
2023-02-11T05:00:26.950Z,27.35
2023-02-11T05:02:54.007Z,27.45
2023-02-11T05:05:21.644Z,31.67
2023-02-11T05:07:48.835Z,27.05
2023-02-11T05:10:16.324Z,31.25
2023-02-11T05:12:43.380Z,29.27
2023-02-11T05:15:10.850Z,28.52
2023-02-11T05:17:38.003Z,27.80
2023-02-11T05:20:05.992Z,34.33
2023-02-11T05:22:33.022Z,30.75
2023-02-11T05:25:00.462Z,26.52
2023-02-11T05:27:27.584Z,27.58
2023-02-11T05:29:54.945Z,28.67
2023-02-11T05:32:22.030Z,29.98
2023-02-11T05:34:49.508Z,29.52
2023-02-11T05:37:16.634Z,29.40
2023-02-11T05:39:44.114Z,29.25
2023-02-11T05:42:11.346Z,28.70
2023-02-11T05:44:39.273Z,28.02
2023-02-11T05:47:09.208Z,26.40
2023-02-11T05:49:36.983Z,27.75
2023-02-11T05:52:04.784Z,26.27
2023-02-11T05:54:32.885Z,26.88
2023-02-11T05:57:00.720Z,26.42
2023-02-11T05:59:28.160Z,25.45
2023-02-11T06:01:57.385Z,26.50
2023-02-11T06:04:24.767Z,24.90
2023-02-11T06:06:51.981Z,22.15
2023-02-11T06:09:19.592Z,24.40
2023-02-11T06:11:46.790Z,24.52
2023-02-11T06:14:14.820Z,25.30
2023-02-11T06:16:41.976Z,23.35
2023-02-11T06:19:09.558Z,23.42
2023-02-11T06:21:43.879Z,23.83
2023-02-11T06:24:12.640Z,22.20
2023-02-11T06:26:39.760Z,22.50
2023-02-11T06:29:07.446Z,23.73
2023-02-11T06:31:34.865Z,24.15
2023-02-11T06:34:03.561Z,21.52
2023-02-11T06:36:30.969Z,23.63
2023-02-11T06:38:58.459Z,19.98
2023-02-11T06:41:25.492Z,21.10
2023-02-11T06:43:53.493Z,23.50
2023-02-11T06:46:20.734Z,20.38
2023-02-11T06:48:48.224Z,20.98
2023-02-11T06:51:16.040Z,23.70
2023-02-11T06:53:46.223Z,26.33
2023-02-11T06:56:16.509Z,22.70
2023-02-11T06:58:44.704Z,19.77
2023-02-11T07:01:14.414Z,19.95
2023-02-11T07:03:44.576Z,20.65
2023-02-11T07:08:42.548Z,23.65
2023-02-11T07:11:24.329Z,23.00
2023-02-11T07:13:53.684Z,21.27
2023-02-11T07:16:21.757Z,17.88
2023-02-11T07:18:49.826Z,17.65
2023-02-11T07:21:19.980Z,19.83
2023-02-11T07:23:48.501Z,20.85
2023-02-11T07:26:23.148Z,22.13
2023-02-11T07:28:51.404Z,17.45
2023-02-11T07:31:26.759Z,16.27
2023-02-11T07:33:57.310Z,21.02
2023-02-11T07:36:24.884Z,16.33
2023-02-11T07:38:54.032Z,14.95
2023-02-11T07:41:22.984Z,15.93
2023-02-11T07:43:51.043Z,12.73
2023-02-11T07:46:27.894Z,17.30
2023-02-11T07:48:55.875Z,18.48
2023-02-11T07:51:26.789Z,17.58
2023-02-11T07:53:55.750Z,15.90
2023-02-11T07:56:23.732Z,12.10
2023-02-11T07:58:52.555Z,14.75
2023-02-11T08:01:25.236Z,11.75
2023-02-11T08:03:53.316Z,10.10
2023-02-11T08:06:22.954Z,10.10
2023-02-11T08:11:24.395Z,14.18
2023-02-11T08:13:53.351Z,8.00
2023-02-11T08:16:24.595Z,9.00
2023-02-11T08:18:54.112Z,9.00
2023-02-11T08:21:21.478Z,11.23
2023-02-11T08:23:49.877Z,11.23
2023-02-11T08:26:19.813Z,12.27
2023-02-11T08:28:49.100Z,10.25
2023-02-11T08:31:25.742Z,8.80
2023-02-11T08:33:54.866Z,8.90
2023-02-11T08:36:24.873Z,9.75
2023-02-11T08:39:05.649Z,10.98
2023-02-11T08:41:39.482Z,10.68
2023-02-11T08:44:07.257Z,14.50
2023-02-11T08:46:34.609Z,8.27
2023-02-11T08:49:02.294Z,16.45
2023-02-11T08:51:31.679Z,9.05
2023-02-11T08:54:00.532Z,9.07
2023-02-11T08:56:28.595Z,9.98
2023-02-11T08:58:56.325Z,8.05
2023-02-11T09:01:26.917Z,9.23
2023-02-11T09:03:55.172Z,7.32
2023-02-11T09:06:23.597Z,8.50
2023-02-11T09:08:53.521Z,9.88
2023-02-11T09:11:26.029Z,11.25
2023-02-11T09:13:54.599Z,9.00
2023-02-11T09:16:28.268Z,7.30
2023-02-11T09:19:01.189Z,49.92
2023-02-11T09:21:29.567Z,10.05
2023-02-11T09:23:57.440Z,11.73
2023-02-11T09:26:41.209Z,7.88
2023-02-11T09:29:18.995Z,20.35
2023-02-11T09:34:17.423Z,13.23
2023-02-11T09:36:44.646Z,7.22
2023-02-11T09:39:17.082Z,8.13
2023-02-11T09:42:26.368Z,8.48
2023-02-11T09:45:01.195Z,8.05
2023-02-11T09:47:34.737Z,16.65
2023-02-11T09:50:15.236Z,7.18
2023-02-11T09:52:57.138Z,8.10
2023-02-11T09:55:30.568Z,7.75
2023-02-11T09:57:58.549Z,5.57
2023-02-11T10:00:38.212Z,12.73
2023-02-11T10:03:05.355Z,8.23
2023-02-11T10:05:53.659Z,10.57
2023-02-11T10:08:44.122Z,17.40
2023-02-11T10:11:31.017Z,14.40
2023-02-11T10:14:45.743Z,8.52
2023-02-11T10:17:38.297Z,10.38
2023-02-11T10:20:17.018Z,3.58
2023-02-11T10:22:53.381Z,3.83
2023-02-11T10:25:38.603Z,6.28
2023-02-11T10:28:22.229Z,2.88
2023-02-11T10:31:06.452Z,4.00
2023-02-11T10:33:37.252Z,2.47
2023-02-11T10:36:05.284Z,2.35
2023-02-11T10:38:34.067Z,2.42
2023-02-11T10:41:01.650Z,2.83
2023-02-11T10:43:32.225Z,2.33
2023-02-11T10:46:03.118Z,2.58
2023-02-11T10:48:46.903Z,2.00
2023-02-11T10:51:21.502Z,2.47
2023-02-11T10:54:08.711Z,2.55
2023-02-11T10:57:00.407Z,3.90
2023-02-11T10:59:39.198Z,3.42
2023-02-11T11:02:32.936Z,3.97
2023-02-11T11:05:17.540Z,3.90
2023-02-11T11:08:21.636Z,3.58
2023-02-11T11:11:47.144Z,4.82
2023-02-11T11:14:49.973Z,4.47
2023-02-11T11:18:46.161Z,4.38
2023-02-11T11:22:36.060Z,3.63
2023-02-11T11:26:02.266Z,3.33
2023-02-11T11:30:14.499Z,5.30
2023-02-11T11:37:33.232Z,5.95
2023-02-11T11:41:54.648Z,17.60
2023-02-11T11:45:37.683Z,6.80
2023-02-11T11:48:41.310Z,6.50
2023-02-11T11:55:35.290Z,5.80
2023-02-11T11:59:06.453Z,6.63
2023-02-11T12:03:31.151Z,3.38
2023-02-11T12:07:43.263Z,3.10
2023-02-11T12:15:53.930Z,5.97
2023-02-11T12:19:49.822Z,29.60
2023-02-11T12:24:05.882Z,27.50
2023-02-11T12:35:50.747Z,11.65
2023-02-11T12:43:24.978Z,6.35
2023-02-11T12:47:03.834Z,6.90
2023-02-11T12:51:07.259Z,9.10
2023-02-11T12:55:09.321Z,6.05
2023-02-11T12:58:44.505Z,9.23
2023-02-11T13:01:53.803Z,9.55
2023-02-11T13:08:34.099Z,8.57
2023-02-11T13:11:44.566Z,8.32
2023-02-11T13:14:46.324Z,6.40
2023-02-11T13:18:16.782Z,5.18
2023-02-11T13:21:56.301Z,4.88
2023-02-11T13:25:07.674Z,27.48
2023-02-11T13:28:41.424Z,8.27
2023-02-11T13:31:39.608Z,7.43
2023-02-11T13:34:56.239Z,11.15
2023-02-11T13:38:12.351Z,66.40
2023-02-11T13:41:29.144Z,16.75
2023-02-11T13:44:48.744Z,8.45
2023-02-11T13:48:08.735Z,6.32
2023-02-11T13:51:58.853Z,9.07
2023-02-11T13:55:36.601Z,16.25
2023-02-11T13:58:30.955Z,8.30
2023-02-11T14:02:20.475Z,8.07
2023-02-11T14:05:47.270Z,7.93
2023-02-11T14:09:19.289Z,15.18
2023-02-11T14:15:22.196Z,7.28
2023-02-11T14:17:54.732Z,5.75
2023-02-11T14:20:46.119Z,7.65
2023-02-11T14:23:29.346Z,9.75
2023-02-11T14:26:16.059Z,8.20
2023-02-11T14:28:56.199Z,11.25
2023-02-11T14:32:05.919Z,6.60
2023-02-11T14:35:16.196Z,8.07
2023-02-11T14:38:05.940Z,6.57
2023-02-11T14:40:41.117Z,7.03
2023-02-11T14:43:28.422Z,6.82
2023-02-11T14:46:00.318Z,5.85
2023-02-11T14:48:31.821Z,7.53
2023-02-11T14:51:00.847Z,10.75
2023-02-11T14:53:31.893Z,8.18
2023-02-11T14:55:59.523Z,9.80
2023-02-11T14:58:32.157Z,7.85
2023-02-11T15:01:07.774Z,12.90
2023-02-11T15:03:43.603Z,12.82
2023-02-11T15:06:21.907Z,9.45
2023-02-11T15:08:55.103Z,6.88
2023-02-11T15:11:26.727Z,6.72
2023-02-11T15:13:59.183Z,10.07
2023-02-11T15:16:29.334Z,7.35
2023-02-11T15:19:02.828Z,8.85
2023-02-11T15:21:34.671Z,8.68
2023-02-11T15:24:39.626Z,7.28
2023-02-11T15:27:14.585Z,10.27
2023-02-11T15:29:50.547Z,8.00
2023-02-11T15:32:36.813Z,9.90
2023-02-11T15:35:11.922Z,11.43
2023-02-11T15:37:40.493Z,6.07
2023-02-11T15:40:19.166Z,6.00
2023-02-11T15:43:13.923Z,5.53
2023-02-11T15:45:56.519Z,6.65
2023-02-11T15:48:37.193Z,6.95
2023-02-11T15:51:23.502Z,6.88
2023-02-11T15:54:02.947Z,6.20
2023-02-11T15:56:45.709Z,9.18
2023-02-11T15:59:26.099Z,10.63
2023-02-11T16:01:55.075Z,7.22
2023-02-11T16:04:26.601Z,9.88
2023-02-11T16:06:55.850Z,8.48
2023-02-11T16:09:36.052Z,9.18
2023-02-11T16:12:25.047Z,8.20
2023-02-11T16:14:52.506Z,8.95
2023-02-11T16:17:27.905Z,7.40
2023-02-11T16:19:55.396Z,10.00
2023-02-11T16:22:26.595Z,7.07
2023-02-11T16:24:57.672Z,11.43
2023-02-11T16:27:44.197Z,16.48
2023-02-11T16:30:27.080Z,11.23
2023-02-11T16:32:54.960Z,27.33
2023-02-11T16:35:22.401Z,7.75
2023-02-11T16:37:50.119Z,5.82
2023-02-11T16:40:17.853Z,6.18
2023-02-11T16:42:45.487Z,4.97
2023-02-11T16:45:13.799Z,4.93
2023-02-11T16:47:42.844Z,5.10
2023-02-11T16:50:19.483Z,9.07
2023-02-11T16:52:48.760Z,8.43
2023-02-11T16:55:17.513Z,12.20
2023-02-11T16:57:46.468Z,11.52
2023-02-11T17:00:17.820Z,7.63
2023-02-11T17:02:46.125Z,8.35
2023-02-11T17:05:23.176Z,9.70
2023-02-11T17:07:51.463Z,5.00
2023-02-11T17:10:21.805Z,4.30
2023-02-11T17:12:51.352Z,6.60
2023-02-11T17:15:19.378Z,4.35
2023-02-11T17:17:48.537Z,4.78
2023-02-11T17:20:16.641Z,4.80
2023-02-11T17:22:44.998Z,4.07
2023-02-11T17:25:12.973Z,3.88
2023-02-11T17:27:42.245Z,3.15
2023-02-11T17:30:13.611Z,2.83
2023-02-11T17:32:41.479Z,3.30
2023-02-11T17:35:09.266Z,2.65
2023-02-11T17:37:37.851Z,2.38
2023-02-11T17:40:06.493Z,2.67
2023-02-11T17:42:34.704Z,3.17
2023-02-11T17:45:02.120Z,2.05
2023-02-11T17:47:31.296Z,2.72
2023-02-11T17:49:59.102Z,2.00
2023-02-11T17:52:28.129Z,2.05
2023-02-11T17:54:56.156Z,2.38
2023-02-11T17:57:23.880Z,1.90
2023-02-11T17:59:51.868Z,2.85
2023-02-11T18:02:19.698Z,2.08
2023-02-11T18:04:47.070Z,2.20
2023-02-11T18:07:14.955Z,1.92
2023-02-11T18:09:44.097Z,2.75
2023-02-11T18:12:11.922Z,1.95
2023-02-11T18:14:40.522Z,4.50
2023-02-11T18:17:08.293Z,2.50
2023-02-11T18:19:36.661Z,1.90
2023-02-11T18:22:04.708Z,1.88
2023-02-11T18:24:32.870Z,1.50
2023-02-11T18:27:01.430Z,1.25
2023-02-11T18:29:29.135Z,1.50
2023-02-11T18:31:57.702Z,1.80
2023-02-11T18:34:25.758Z,1.40
2023-02-11T18:36:54.232Z,1.35
2023-02-11T18:39:24.472Z,1.70
2023-02-11T18:41:57.019Z,2.50
2023-02-11T18:44:26.568Z,1.70
2023-02-11T18:49:23.701Z,2.47
2023-02-11T18:51:52.355Z,2.60
2023-02-11T18:54:21.517Z,2.25
2023-02-11T18:59:18.119Z,3.50
2023-02-11T19:01:47.335Z,1.10
2023-02-11T19:04:20.534Z,1.88
2023-02-11T19:06:51.460Z,3.00
2023-02-11T19:09:24.840Z,2.30
2023-02-11T19:12:30.730Z,2.00
2023-02-11T19:15:10.203Z,2.33
2023-02-11T19:18:19.054Z,2.90
2023-02-11T19:20:50.183Z,2.83
2023-02-11T19:23:18.993Z,1.77
2023-02-11T19:25:48.398Z,2.53
2023-02-11T19:28:16.230Z,3.10
2023-02-11T19:30:44.253Z,2.30
2023-02-11T19:33:12.967Z,2.60
2023-02-11T19:35:40.997Z,2.08
2023-02-11T19:38:09.396Z,3.25
2023-02-11T19:40:37.339Z,2.85
2023-02-11T19:43:05.817Z,5.57
2023-02-11T19:45:38.336Z,2.67
2023-02-11T19:48:06.644Z,2.05
2023-02-11T19:50:34.037Z,2.83
2023-02-11T19:53:02.950Z,2.33
2023-02-11T19:55:31.077Z,1.75
2023-02-11T19:57:59.280Z,2.65
2023-02-11T20:00:26.782Z,1.75
2023-02-11T20:02:55.284Z,2.65
2023-02-11T20:05:22.895Z,2.95
2023-02-11T20:07:50.849Z,2.35
2023-02-11T20:10:18.550Z,1.85
2023-02-11T20:12:48.827Z,1.70
2023-02-11T20:15:17.430Z,3.17
2023-02-11T20:17:45.831Z,4.05
2023-02-11T20:20:14.121Z,2.80
2023-02-11T20:22:42.951Z,3.63
2023-02-11T20:25:14.467Z,5.53
2023-02-11T20:27:45.813Z,3.88
2023-02-11T20:30:15.573Z,3.80
2023-02-11T20:32:44.509Z,6.15
2023-02-11T20:35:12.380Z,5.63
2023-02-11T20:37:43.788Z,4.88
2023-02-11T20:40:12.630Z,3.80
2023-02-11T20:42:41.153Z,1.88
2023-02-11T20:45:09.708Z,2.55
2023-02-11T20:47:39.066Z,2.72
2023-02-11T20:50:07.948Z,1.50
2023-02-11T20:52:40.713Z,1.25
2023-02-11T20:55:08.729Z,1.02
2023-02-11T20:57:37.177Z,0.93
2023-02-11T21:00:06.421Z,1.27
2023-02-11T21:02:34.853Z,0.85
2023-02-11T21:05:02.989Z,0.70
2023-02-11T21:07:31.648Z,0.90
2023-02-11T21:09:59.644Z,0.68
2023-02-11T21:12:27.908Z,1.33
2023-02-11T21:14:57.290Z,1.38
2023-02-11T21:17:26.622Z,1.40
2023-02-11T21:19:54.342Z,1.30
2023-02-11T21:22:22.392Z,1.10
2023-02-11T21:24:50.677Z,0.50
2023-02-11T21:27:19.399Z,1.30
2023-02-11T21:29:54.165Z,0.98
2023-02-11T21:32:22.951Z,2.28
2023-02-11T21:34:51.115Z,2.20
2023-02-11T21:37:19.093Z,1.58
2023-02-11T21:39:46.568Z,1.08
2023-02-11T21:42:14.562Z,2.28
2023-02-11T21:44:42.232Z,3.72
2023-02-11T21:47:10.182Z,3.83
2023-02-11T21:49:38.156Z,3.38
2023-02-11T21:52:06.050Z,3.95
2023-02-11T21:54:33.876Z,2.78
2023-02-11T21:57:03.305Z,2.78
2023-02-11T21:59:32.023Z,2.85
2023-02-11T22:01:59.906Z,2.35
2023-02-11T22:04:27.496Z,1.80
2023-02-11T22:06:55.995Z,2.45
2023-02-11T22:09:23.827Z,1.33
2023-02-11T22:11:53.164Z,1.80
2023-02-11T22:14:20.529Z,1.75
2023-02-11T22:16:48.429Z,2.10
2023-02-11T22:19:15.795Z,1.80
2023-02-11T22:21:43.561Z,1.67
2023-02-11T22:24:11.129Z,1.17
2023-02-11T22:26:38.957Z,1.20
2023-02-11T22:29:06.268Z,0.90
2023-02-11T22:31:35.297Z,0.70
2023-02-11T22:34:04.774Z,0.90
2023-02-11T22:36:35.517Z,2.03
2023-02-11T22:39:13.877Z,1.15
2023-02-11T22:41:43.355Z,1.77
2023-02-11T22:44:11.776Z,2.28
2023-02-11T22:46:46.264Z,1.73
2023-02-11T22:49:15.829Z,8.07
2023-02-11T22:51:44.131Z,3.10
2023-02-11T22:54:18.936Z,1.98
2023-02-11T22:56:50.840Z,1.23
2023-02-11T22:59:19.002Z,1.30
2023-02-11T23:01:46.864Z,1.25
2023-02-11T23:04:16.180Z,36.08
2023-02-11T23:06:43.998Z,2.25
2023-02-11T23:09:14.754Z,4.93
2023-02-11T23:11:42.633Z,10.63
2023-02-11T23:14:12.668Z,3.03
2023-02-11T23:16:41.643Z,9.30
2023-02-11T23:19:10.376Z,1.60
2023-02-11T23:21:39.350Z,1.00
2023-02-11T23:24:15.924Z,1.48
2023-02-11T23:26:44.626Z,1.30
2023-02-11T23:29:12.378Z,1.40
2023-02-11T23:31:43.896Z,1.45
2023-02-11T23:34:12.266Z,2.13
2023-02-11T23:36:39.800Z,1.42
2023-02-11T23:39:07.077Z,1.50
2023-02-11T23:41:35.123Z,1.52
2023-02-11T23:44:02.407Z,1.35
2023-02-11T23:46:30.122Z,1.42
2023-02-11T23:48:57.518Z,1.20
2023-02-11T23:51:25.417Z,1.45
2023-02-11T23:53:54.869Z,1.63
2023-02-11T23:58:54.429Z,1.50
